createdAt,value
2022-07-31T00:00:19.269Z,96.13
2022-07-31T00:02:46.709Z,91.03
2022-07-31T00:05:13.491Z,100.07
2022-07-31T00:07:40.213Z,91.50
2022-07-31T00:10:07.431Z,92.50
2022-07-31T00:12:37.197Z,93.90
2022-07-31T00:15:06.123Z,91.80
2022-07-31T00:17:33.167Z,90.50
2022-07-31T00:19:59.910Z,91.37
2022-07-31T00:22:26.562Z,92.77
2022-07-31T00:24:53.410Z,91.77
2022-07-31T00:27:20.065Z,95.43
2022-07-31T00:29:46.826Z,93.50
2022-07-31T00:32:13.506Z,91.13
2022-07-31T00:34:40.162Z,92.97
2022-07-31T00:37:07.101Z,92.30
2022-07-31T00:39:34.024Z,93.90
2022-07-31T00:42:00.701Z,91.80
2022-07-31T00:44:27.441Z,91.50
2022-07-31T00:46:54.215Z,92.10
2022-07-31T00:49:22.098Z,91.50
2022-07-31T00:51:48.751Z,91.30
2022-07-31T00:54:18.621Z,91.13
2022-07-31T00:56:50.249Z,94.40
2022-07-31T00:59:18.487Z,93.30
2022-07-31T01:01:51.588Z,93.97
2022-07-31T01:04:19.122Z,93.83
2022-07-31T01:06:47.062Z,95.20
2022-07-31T01:09:14.706Z,92.97
2022-07-31T01:12:02.371Z,95.40
2022-07-31T01:14:34.005Z,92.97
2022-07-31T01:17:02.243Z,92.50
2022-07-31T01:19:39.724Z,92.27
2022-07-31T01:22:34.099Z,93.30
2022-07-31T01:25:16.113Z,95.33
2022-07-31T01:27:56.412Z,97.20
2022-07-31T01:30:30.828Z,96.97
2022-07-31T01:33:02.052Z,93.13
2022-07-31T01:35:33.037Z,94.30
2022-07-31T01:38:14.746Z,96.27
2022-07-31T01:40:48.138Z,94.97
2022-07-31T01:43:29.636Z,93.70
2022-07-31T01:45:58.871Z,94.07
2022-07-31T01:48:26.749Z,92.60
2022-07-31T01:50:56.273Z,104.60
2022-07-31T01:53:24.892Z,93.37
2022-07-31T01:56:02.752Z,100.77
2022-07-31T01:58:35.064Z,94.50
2022-07-31T02:01:03.837Z,92.80
2022-07-31T02:03:43.750Z,94.90
2022-07-31T02:06:16.909Z,93.23
2022-07-31T02:08:46.474Z,93.70
2022-07-31T02:11:15.991Z,93.10
2022-07-31T02:13:43.658Z,91.80
2022-07-31T02:16:11.790Z,96.57
2022-07-31T02:18:38.954Z,94.57
2022-07-31T02:21:05.787Z,99.77
2022-07-31T02:23:33.374Z,97.40
2022-07-31T02:26:01.868Z,94.27
2022-07-31T02:28:30.615Z,97.40
2022-07-31T02:30:58.548Z,92.77
2022-07-31T02:33:26.540Z,93.43
2022-07-31T02:35:57.871Z,93.83
2022-07-31T02:38:27.215Z,94.03
2022-07-31T02:40:57.792Z,95.50
2022-07-31T02:43:26.765Z,97.30
2022-07-31T02:45:55.674Z,107.07
2022-07-31T02:48:23.751Z,98.33
2022-07-31T02:50:51.082Z,95.30
2022-07-31T02:53:18.030Z,94.47
2022-07-31T02:55:45.428Z,93.87
2022-07-31T02:58:12.443Z,96.90
2022-07-31T03:00:39.340Z,95.17
2022-07-31T03:03:06.063Z,98.10
2022-07-31T03:05:32.756Z,95.47
2022-07-31T03:07:59.439Z,96.27
2022-07-31T03:10:26.247Z,93.67
2022-07-31T03:12:55.573Z,93.60
2022-07-31T03:15:25.714Z,94.77
2022-07-31T03:17:54.427Z,94.87
2022-07-31T03:20:21.901Z,97.88
2022-07-31T03:22:49.317Z,96.63
2022-07-31T03:25:20.170Z,97.88
2022-07-31T03:27:56.241Z,97.00
2022-07-31T03:30:27.768Z,97.37
2022-07-31T03:32:56.002Z,96.33
2022-07-31T03:35:24.087Z,95.70
2022-07-31T03:37:50.981Z,98.70
2022-07-31T03:40:17.668Z,94.97
2022-07-31T03:42:44.784Z,95.33
2022-07-31T03:45:13.160Z,96.88
2022-07-31T03:47:40.091Z,97.37
2022-07-31T03:50:08.063Z,94.37
2022-07-31T03:52:35.901Z,98.07
2022-07-31T03:55:02.835Z,97.83
2022-07-31T03:57:33.194Z,97.53
2022-07-31T04:00:03.264Z,95.87
2022-07-31T04:02:31.824Z,97.57
2022-07-31T04:04:59.524Z,99.13
2022-07-31T04:07:26.923Z,99.93
2022-07-31T04:09:53.590Z,95.40
2022-07-31T04:12:20.434Z,96.10
2022-07-31T04:14:47.419Z,95.67
2022-07-31T04:17:14.457Z,100.60
2022-07-31T04:19:41.312Z,107.43
2022-07-31T04:22:08.602Z,94.95
2022-07-31T04:24:35.578Z,96.90
2022-07-31T04:27:07.014Z,97.37
2022-07-31T04:29:36.358Z,96.67
2022-07-31T04:32:04.095Z,95.00
2022-07-31T04:34:30.948Z,94.88
2022-07-31T04:36:58.740Z,95.97
2022-07-31T04:39:25.418Z,96.10
2022-07-31T04:41:52.149Z,94.80
2022-07-31T04:44:18.872Z,96.40
2022-07-31T04:46:45.550Z,95.40
2022-07-31T04:49:15.074Z,99.93
2022-07-31T04:51:42.750Z,95.43
2022-07-31T04:54:10.271Z,94.60
2022-07-31T04:56:37.686Z,94.13
2022-07-31T04:59:08.189Z,95.87
2022-07-31T05:01:35.020Z,95.27
2022-07-31T05:04:02.096Z,97.93
2022-07-31T05:06:36.853Z,94.20
2022-07-31T05:09:10.738Z,93.50
2022-07-31T05:11:41.015Z,97.53
2022-07-31T05:14:09.955Z,93.73
2022-07-31T05:16:37.025Z,95.97
2022-07-31T05:19:05.062Z,93.00
2022-07-31T05:21:52.930Z,102.90
2022-07-31T05:24:22.601Z,95.07
2022-07-31T05:27:00.273Z,95.47
2022-07-31T05:29:26.947Z,98.60
2022-07-31T05:32:00.453Z,94.97
2022-07-31T05:34:29.972Z,95.77
2022-07-31T05:36:57.861Z,93.97
2022-07-31T05:39:25.216Z,94.27
2022-07-31T05:41:52.801Z,102.53
2022-07-31T05:44:19.649Z,94.50
2022-07-31T05:46:46.462Z,94.57
2022-07-31T05:49:13.166Z,90.90
2022-07-31T05:51:43.615Z,91.83
2022-07-31T05:54:10.252Z,92.60
2022-07-31T05:56:36.918Z,92.40
2022-07-31T05:59:03.768Z,96.70
2022-07-31T06:01:30.492Z,93.50
2022-07-31T06:03:57.247Z,91.20
2022-07-31T06:06:23.918Z,94.13
2022-07-31T06:08:50.649Z,93.50
2022-07-31T06:11:17.319Z,97.90
2022-07-31T06:13:43.991Z,92.30
2022-07-31T06:16:14.912Z,92.47
2022-07-31T06:18:42.108Z,92.77
2022-07-31T06:21:08.818Z,92.67
2022-07-31T06:23:35.520Z,90.17
2022-07-31T06:26:03.363Z,93.57
2022-07-31T06:28:46.422Z,95.97
2022-07-31T06:31:22.265Z,91.67
2022-07-31T06:33:49.928Z,97.37
2022-07-31T06:36:17.839Z,91.40
2022-07-31T06:38:44.585Z,94.43
2022-07-31T06:41:11.298Z,91.67
2022-07-31T06:43:37.985Z,90.97
2022-07-31T06:46:04.618Z,91.17
2022-07-31T06:48:31.271Z,91.87
2022-07-31T06:53:44.612Z,92.87
2022-07-31T06:56:11.267Z,94.80
2022-07-31T06:58:38.054Z,90.27
2022-07-31T07:01:04.758Z,90.50
2022-07-31T07:03:31.477Z,91.17
2022-07-31T07:05:58.130Z,89.47
2022-07-31T07:08:25.144Z,89.20
2022-07-31T07:10:51.821Z,90.87
2022-07-31T07:13:18.477Z,90.53
2022-07-31T07:15:45.120Z,91.67
2022-07-31T07:18:11.823Z,91.70
2022-07-31T07:20:39.176Z,89.87
2022-07-31T07:23:05.997Z,87.93
2022-07-31T07:25:32.642Z,87.20
2022-07-31T07:27:59.308Z,91.20
2022-07-31T07:30:28.529Z,90.17
2022-07-31T07:32:55.396Z,86.70
2022-07-31T07:35:22.428Z,87.07
2022-07-31T07:37:49.252Z,87.30
2022-07-31T07:40:17.057Z,90.07
2022-07-31T07:42:44.035Z,88.47
2022-07-31T07:45:10.950Z,94.20
2022-07-31T07:47:53.885Z,92.00
2022-07-31T07:50:26.889Z,88.80
2022-07-31T07:52:55.754Z,89.87
2022-07-31T07:55:22.417Z,89.33
2022-07-31T07:57:49.143Z,100.37
2022-07-31T08:00:16.247Z,86.90
2022-07-31T08:02:44.921Z,88.30
2022-07-31T08:05:31.499Z,86.87
2022-07-31T08:07:58.373Z,93.13
2022-07-31T08:10:25.134Z,93.10
2022-07-31T08:12:51.834Z,89.97
2022-07-31T08:15:18.518Z,89.37
2022-07-31T08:17:45.251Z,88.47
2022-07-31T08:20:13.909Z,88.90
2022-07-31T08:22:40.590Z,87.40
2022-07-31T08:25:14.373Z,88.50
2022-07-31T08:27:41.818Z,88.77
2022-07-31T08:30:09.676Z,87.43
2022-07-31T08:32:36.685Z,87.70
2022-07-31T08:35:03.504Z,89.00
2022-07-31T08:37:51.638Z,87.20
2022-07-31T08:40:17.936Z,88.70
2022-07-31T08:42:45.941Z,88.97
2022-07-31T08:45:13.041Z,86.50
2022-07-31T08:47:44.581Z,87.10
2022-07-31T08:50:13.977Z,89.37
2022-07-31T08:52:43.880Z,87.87
2022-07-31T08:55:11.150Z,85.70
2022-07-31T08:57:58.163Z,87.07
2022-07-31T09:00:25.135Z,87.10
2022-07-31T09:02:53.104Z,85.87
2022-07-31T09:05:20.472Z,85.20
2022-07-31T09:07:47.138Z,88.50
2022-07-31T09:10:28.564Z,85.00
2022-07-31T09:12:56.099Z,84.87
2022-07-31T09:15:27.614Z,87.80
2022-07-31T09:17:54.607Z,85.63
2022-07-31T09:20:24.318Z,84.37
2022-07-31T09:23:10.491Z,84.40
2022-07-31T09:25:37.520Z,82.63
2022-07-31T09:28:05.901Z,84.47
2022-07-31T09:30:33.563Z,86.87
2022-07-31T09:33:14.015Z,87.80
2022-07-31T09:35:50.050Z,85.13
2022-07-31T09:38:17.580Z,97.53
2022-07-31T09:40:57.720Z,82.67
2022-07-31T09:43:25.704Z,85.40
2022-07-31T09:46:00.571Z,84.63
2022-07-31T09:48:28.615Z,88.07
2022-07-31T09:51:06.094Z,88.83
2022-07-31T09:53:43.917Z,85.13
2022-07-31T09:56:12.633Z,84.00
2022-07-31T09:58:42.575Z,83.90
2022-07-31T10:01:11.063Z,87.40
2022-07-31T10:03:39.561Z,84.97
2022-07-31T10:06:08.704Z,84.57
2022-07-31T10:08:37.071Z,86.37
2022-07-31T10:11:05.235Z,84.40
2022-07-31T10:13:37.488Z,83.70
2022-07-31T10:16:09.349Z,84.40
2022-07-31T10:18:44.102Z,85.10
2022-07-31T10:21:12.075Z,84.80
2022-07-31T10:23:42.110Z,84.47
2022-07-31T10:26:09.219Z,85.80
2022-07-31T10:28:39.147Z,84.67
2022-07-31T10:31:06.183Z,82.20
2022-07-31T10:33:44.212Z,81.50
2022-07-31T10:36:18.422Z,83.17
2022-07-31T10:38:56.064Z,82.50
2022-07-31T10:41:46.929Z,82.07
2022-07-31T10:44:19.220Z,82.57
2022-07-31T10:46:45.873Z,80.47
2022-07-31T10:49:12.923Z,83.30
2022-07-31T10:51:50.145Z,80.67
2022-07-31T10:54:17.488Z,79.67
2022-07-31T10:56:46.168Z,81.00
2022-07-31T10:59:13.026Z,84.47
2022-07-31T11:01:54.829Z,81.70
2022-07-31T11:04:29.338Z,81.30
2022-07-31T11:06:56.310Z,81.70
2022-07-31T11:09:24.682Z,86.50
2022-07-31T11:11:53.464Z,80.27
2022-07-31T11:14:31.964Z,80.70
2022-07-31T11:16:58.723Z,79.37
2022-07-31T11:19:25.448Z,79.67
2022-07-31T11:21:57.247Z,81.30
2022-07-31T11:24:24.161Z,78.37
2022-07-31T11:26:55.819Z,82.73
2022-07-31T11:30:00.679Z,80.40
2022-07-31T11:32:25.382Z,78.77
2022-07-31T11:34:56.588Z,80.70
2022-07-31T11:37:25.715Z,77.80
2022-07-31T11:39:53.827Z,78.83
2022-07-31T11:42:26.573Z,77.87
2022-07-31T11:45:08.302Z,78.67
2022-07-31T11:48:11.034Z,80.70
2022-07-31T11:50:42.770Z,78.90
2022-07-31T11:53:09.510Z,78.97
2022-07-31T11:55:59.556Z,78.67
2022-07-31T11:58:28.537Z,79.80
2022-07-31T12:00:56.451Z,79.00
2022-07-31T12:03:26.498Z,78.90
2022-07-31T12:05:53.471Z,79.60
2022-07-31T12:08:21.483Z,79.37
2022-07-31T12:10:49.105Z,80.20
2022-07-31T12:13:18.926Z,80.70
2022-07-31T12:16:04.262Z,79.87
2022-07-31T12:18:34.135Z,78.80
2022-07-31T12:21:04.731Z,79.50
2022-07-31T12:23:42.156Z,79.67
2022-07-31T12:26:12.123Z,78.33
2022-07-31T12:28:39.117Z,79.23
2022-07-31T12:31:05.874Z,78.20
2022-07-31T12:33:43.234Z,80.30
2022-07-31T12:36:15.065Z,79.30
2022-07-31T12:38:48.415Z,77.70
2022-07-31T12:41:16.229Z,78.03
2022-07-31T12:43:51.701Z,80.50
2022-07-31T12:46:35.830Z,81.03
2022-07-31T12:49:03.678Z,78.67
2022-07-31T12:51:44.248Z,79.90
2022-07-31T12:54:17.758Z,79.60
2022-07-31T12:56:46.299Z,81.03
2022-07-31T12:59:13.597Z,78.73
2022-07-31T13:01:40.487Z,79.27
2022-07-31T13:04:08.013Z,79.57
2022-07-31T13:06:45.122Z,81.57
2022-07-31T13:09:11.762Z,79.20
2022-07-31T13:11:46.516Z,78.60
2022-07-31T13:14:19.279Z,79.27
2022-07-31T13:16:46.721Z,79.80
2022-07-31T13:19:14.197Z,78.80
2022-07-31T13:21:49.245Z,78.07
2022-07-31T13:24:18.886Z,79.40
2022-07-31T13:26:45.867Z,77.53
2022-07-31T13:29:12.941Z,82.10
2022-07-31T13:31:39.726Z,77.10
2022-07-31T13:34:06.912Z,77.83
2022-07-31T13:36:38.996Z,75.87
2022-07-31T13:39:07.633Z,77.50
2022-07-31T13:41:35.457Z,76.30
2022-07-31T13:44:03.188Z,78.10
2022-07-31T13:46:30.018Z,77.30
2022-07-31T13:49:02.619Z,77.77
2022-07-31T13:51:30.043Z,78.40
2022-07-31T13:53:56.823Z,80.67
2022-07-31T13:56:40.955Z,77.10
2022-07-31T13:59:11.393Z,78.47
2022-07-31T14:02:03.406Z,78.07
2022-07-31T14:04:25.795Z,78.37
2022-07-31T14:06:55.208Z,80.60
2022-07-31T14:09:21.887Z,78.33
2022-07-31T14:11:48.533Z,78.50
2022-07-31T14:14:22.951Z,78.87
2022-07-31T14:16:50.525Z,77.90
2022-07-31T14:19:17.177Z,78.20
2022-07-31T14:21:55.966Z,78.37
2022-07-31T14:24:24.990Z,79.27
2022-07-31T14:26:51.876Z,78.30
2022-07-31T14:29:18.584Z,79.73
2022-07-31T14:31:45.276Z,79.80
2022-07-31T14:34:11.936Z,81.00
2022-07-31T14:36:38.815Z,78.70
2022-07-31T14:39:05.477Z,79.70
2022-07-31T14:41:32.132Z,79.27
2022-07-31T14:43:58.800Z,79.93
2022-07-31T14:46:25.458Z,79.43
2022-07-31T14:48:52.265Z,79.10
2022-07-31T14:51:20.032Z,78.80
2022-07-31T14:53:47.035Z,78.50
2022-07-31T14:56:15.112Z,78.20
2022-07-31T14:58:57.761Z,78.70
2022-07-31T15:01:26.817Z,77.97
2022-07-31T15:03:57.599Z,78.20
2022-07-31T15:06:50.834Z,80.17
2022-07-31T15:09:12.864Z,79.27
2022-07-31T15:11:59.677Z,78.23
2022-07-31T15:14:28.744Z,80.83
2022-07-31T15:16:55.390Z,79.70
2022-07-31T15:19:22.063Z,78.37
2022-07-31T15:22:11.139Z,77.97
2022-07-31T15:24:35.644Z,78.57
2022-07-31T15:27:02.737Z,78.80
2022-07-31T15:30:05.765Z,79.03
2022-07-31T15:32:16.386Z,78.67
2022-07-31T15:34:43.070Z,80.33
2022-07-31T15:37:09.717Z,78.40
2022-07-31T15:39:37.277Z,80.30
2022-07-31T15:42:04.131Z,88.83
2022-07-31T15:44:30.785Z,78.90
2022-07-31T15:46:57.437Z,79.60
2022-07-31T15:49:24.173Z,80.43
2022-07-31T15:51:50.874Z,81.27
2022-07-31T15:54:17.612Z,78.10
2022-07-31T15:56:46.686Z,79.50
2022-07-31T15:59:13.347Z,78.67
2022-07-31T16:01:40.177Z,80.43
2022-07-31T16:04:16.329Z,81.33
2022-07-31T16:06:48.862Z,79.90
2022-07-31T16:09:16.275Z,79.63
2022-07-31T16:12:04.837Z,80.30
2022-07-31T16:14:29.729Z,80.67
2022-07-31T16:17:02.461Z,81.30
2022-07-31T16:19:29.235Z,79.10
2022-07-31T16:22:00.457Z,78.90
2022-07-31T16:24:27.560Z,80.20
2022-07-31T16:26:54.336Z,80.47
2022-07-31T16:29:59.962Z,81.10
2022-07-31T16:32:10.700Z,79.43
2022-07-31T16:34:37.385Z,80.70
2022-07-31T16:37:04.371Z,78.80
2022-07-31T16:39:31.206Z,80.07
2022-07-31T16:41:57.845Z,78.80
2022-07-31T16:44:24.514Z,81.40
2022-07-31T16:46:54.711Z,80.67
2022-07-31T16:49:31.882Z,81.67
2022-07-31T16:52:07.505Z,80.50
2022-07-31T16:54:34.355Z,82.00
2022-07-31T16:57:01.065Z,80.60
2022-07-31T16:59:27.749Z,79.70
2022-07-31T17:01:59.844Z,81.50
2022-07-31T17:04:27.900Z,80.50
2022-07-31T17:06:54.928Z,80.50
2022-07-31T17:09:21.749Z,79.40
2022-07-31T17:11:50.935Z,81.67
2022-07-31T17:14:19.576Z,80.47
2022-07-31T17:16:48.983Z,81.00
2022-07-31T17:19:42.999Z,80.00
2022-07-31T17:22:05.123Z,81.70
2022-07-31T17:24:34.714Z,79.80
2022-07-31T17:27:04.725Z,79.40
2022-07-31T17:29:31.654Z,79.63
2022-07-31T17:31:58.312Z,83.13
2022-07-31T17:34:24.986Z,80.80
2022-07-31T17:36:52.022Z,79.20
2022-07-31T17:39:18.759Z,82.27
2022-07-31T17:41:45.491Z,80.30
2022-07-31T17:44:12.243Z,79.50
2022-07-31T17:46:48.067Z,79.90
2022-07-31T17:49:19.362Z,80.37
2022-07-31T17:52:07.717Z,80.83
2022-07-31T17:54:34.523Z,80.60
2022-07-31T17:57:01.818Z,80.70
2022-07-31T17:59:28.635Z,80.90
2022-07-31T18:02:00.075Z,81.33
2022-07-31T18:04:28.608Z,80.27
2022-07-31T18:06:55.562Z,83.03
2022-07-31T18:09:23.636Z,82.00
2022-07-31T18:11:51.778Z,83.37
2022-07-31T18:14:18.867Z,81.10
2022-07-31T18:16:45.798Z,81.87
2022-07-31T18:19:13.171Z,81.97
2022-07-31T18:21:40.017Z,82.33
2022-07-31T18:24:07.057Z,81.90
2022-07-31T18:26:35.305Z,83.97
2022-07-31T18:29:02.637Z,82.17
2022-07-31T18:31:31.763Z,81.37
2022-07-31T18:34:01.967Z,83.00
2022-07-31T18:36:28.704Z,82.60
2022-07-31T18:38:55.374Z,82.67
2022-07-31T18:41:22.042Z,83.27
2022-07-31T18:43:48.805Z,82.20
2022-07-31T18:46:15.811Z,83.30
2022-07-31T18:48:42.549Z,84.00
2022-07-31T18:51:09.352Z,82.00
2022-07-31T18:53:36.048Z,84.00
2022-07-31T18:56:02.930Z,82.30
2022-07-31T18:58:29.702Z,82.67
2022-07-31T19:00:56.397Z,83.63
2022-07-31T19:03:25.645Z,83.07
2022-07-31T19:05:53.140Z,82.40
2022-07-31T19:08:20.886Z,82.33
2022-07-31T19:10:49.364Z,83.57
2022-07-31T19:13:19.136Z,83.23
2022-07-31T19:15:52.743Z,82.90
2022-07-31T19:18:28.209Z,88.33
2022-07-31T19:21:16.701Z,87.50
2022-07-31T19:23:43.149Z,83.27
2022-07-31T19:26:09.851Z,82.73
2022-07-31T19:28:38.075Z,83.50
2022-07-31T19:31:04.879Z,85.60
2022-07-31T19:33:31.854Z,83.33
2022-07-31T19:36:01.993Z,84.37
2022-07-31T19:38:31.596Z,83.90
2022-07-31T19:40:58.478Z,91.30
2022-07-31T19:43:25.334Z,89.27
2022-07-31T19:46:10.225Z,86.63
2022-07-31T19:48:40.936Z,84.83
2022-07-31T19:51:08.227Z,85.77
2022-07-31T19:53:34.946Z,86.50
2022-07-31T19:56:05.531Z,89.30
2022-07-31T19:58:36.540Z,95.50
2022-07-31T20:01:05.173Z,84.77
2022-07-31T20:03:32.641Z,87.93
2022-07-31T20:05:59.477Z,85.00
2022-07-31T20:08:26.239Z,86.20
2022-07-31T20:10:54.879Z,85.87
2022-07-31T20:13:21.548Z,86.80
2022-07-31T20:15:50.885Z,84.57
2022-07-31T20:18:27.460Z,86.37
2022-07-31T20:21:07.312Z,86.90
2022-07-31T20:23:37.161Z,85.50
2022-07-31T20:26:05.747Z,85.10
2022-07-31T20:28:32.473Z,85.33
2022-07-31T20:30:59.252Z,90.00
2022-07-31T20:33:26.053Z,85.17
2022-07-31T20:35:52.939Z,84.80
2022-07-31T20:38:23.637Z,86.90
2022-07-31T20:40:53.624Z,85.17
2022-07-31T20:43:26.319Z,86.37
2022-07-31T20:45:54.366Z,85.40
2022-07-31T20:48:23.882Z,85.07
2022-07-31T20:50:51.198Z,87.40
2022-07-31T20:53:17.990Z,86.37
2022-07-31T20:55:47.428Z,85.47
2022-07-31T20:58:14.478Z,92.57
2022-07-31T21:00:41.765Z,87.53
2022-07-31T21:03:08.734Z,93.33
2022-07-31T21:05:35.444Z,91.33
2022-07-31T21:08:02.201Z,86.87
2022-07-31T21:10:29.947Z,86.40
2022-07-31T21:12:57.330Z,90.27
2022-07-31T21:15:41.191Z,87.07
2022-07-31T21:18:17.890Z,86.07
2022-07-31T21:20:52.246Z,87.03
2022-07-31T21:23:24.349Z,90.40
2022-07-31T21:25:52.490Z,92.37
2022-07-31T21:28:19.443Z,88.07
2022-07-31T21:30:46.780Z,87.83
2022-07-31T21:33:13.599Z,86.97
2022-07-31T21:35:40.890Z,86.30
2022-07-31T21:38:12.291Z,88.07
2022-07-31T21:40:40.243Z,87.93
2022-07-31T21:43:08.442Z,91.03
2022-07-31T21:45:49.585Z,87.70
2022-07-31T21:48:18.152Z,88.57
2022-07-31T21:50:46.469Z,88.97
2022-07-31T21:53:13.653Z,87.87
2022-07-31T21:55:40.419Z,87.37
2022-07-31T21:58:07.724Z,99.50
2022-07-31T22:00:34.791Z,90.03
2022-07-31T22:03:02.923Z,87.70
2022-07-31T22:05:49.290Z,92.70
2022-07-31T22:08:16.599Z,90.73
2022-07-31T22:10:43.567Z,89.00
2022-07-31T22:13:10.680Z,91.40
2022-07-31T22:15:50.477Z,87.60
2022-07-31T22:18:26.357Z,97.13
2022-07-31T22:20:53.729Z,90.63
2022-07-31T22:23:20.878Z,87.57
2022-07-31T22:25:50.975Z,89.17
2022-07-31T22:28:20.546Z,89.07
2022-07-31T22:30:48.036Z,89.40
2022-07-31T22:33:15.255Z,88.77
2022-07-31T22:35:42.736Z,91.40
2022-07-31T22:38:11.492Z,89.53
2022-07-31T22:40:38.431Z,87.43
2022-07-31T22:44:09.405Z,88.83
2022-07-31T22:45:53.863Z,88.10
2022-07-31T22:48:24.257Z,88.10
2022-07-31T22:50:51.007Z,92.10
2022-07-31T22:53:17.721Z,88.20
2022-07-31T22:55:44.461Z,87.73
2022-07-31T22:58:14.861Z,88.70
2022-07-31T23:00:42.331Z,88.50
2022-07-31T23:03:09.048Z,90.63
2022-07-31T23:06:28.111Z,88.60
2022-07-31T23:08:22.379Z,87.47
2022-07-31T23:10:49.248Z,87.77
2022-07-31T23:13:15.952Z,90.97
2022-07-31T23:15:43.689Z,90.17
2022-07-31T23:18:10.484Z,91.03
2022-07-31T23:20:37.159Z,89.00
2022-07-31T23:23:03.837Z,88.37
2022-07-31T23:25:30.520Z,88.37
2022-07-31T23:27:57.195Z,88.33
2022-07-31T23:30:27.325Z,88.17
2022-07-31T23:32:55.291Z,87.27
2022-07-31T23:35:22.045Z,88.33
2022-07-31T23:37:48.736Z,88.40
2022-07-31T23:40:15.443Z,95.90
2022-07-31T23:42:42.104Z,87.27
2022-07-31T23:45:12.195Z,86.67
2022-07-31T23:47:45.183Z,86.97
2022-07-31T23:50:14.369Z,87.33
2022-07-31T23:52:41.891Z,88.50
2022-07-31T23:55:09.099Z,91.47
2022-07-31T23:57:36.407Z,86.90
